sensor_id;sensor_type;location;lat;lon;timestamp;P1;durP1;ratioP1;P2;durP2;ratioP2
56752;SDS011;42627;42.646;23.642;2023-08-07T00:00:45;2.05;;;1.10;;
56752;SDS011;42627;42.646;23.642;2023-08-07T00:02:46;2.55;;;1.20;;
56752;SDS011;42627;42.646;23.642;2023-08-07T00:04:47;1.80;;;0.95;;
56752;SDS011;42627;42.646;23.642;2023-08-07T00:06:48;2.53;;;1.17;;
56752;SDS011;42627;42.646;23.642;2023-08-07T00:08:58;2.15;;;1.05;;
56752;SDS011;42627;42.646;23.642;2023-08-07T00:11:06;2.38;;;1.30;;
56752;SDS011;42627;42.646;23.642;2023-08-07T00:17:29;3.05;;;1.10;;
56752;SDS011;42627;42.646;23.642;2023-08-07T00:19:30;2.72;;;1.10;;
56752;SDS011;42627;42.646;23.642;2023-08-07T00:21:31;2.33;;;0.98;;
56752;SDS011;42627;42.646;23.642;2023-08-07T00:23:32;2.05;;;0.90;;
56752;SDS011;42627;42.646;23.642;2023-08-07T00:30:21;2.28;;;1.00;;
56752;SDS011;42627;42.646;23.642;2023-08-07T00:32:22;2.20;;;1.20;;
56752;SDS011;42627;42.646;23.642;2023-08-07T00:34:23;3.05;;;1.20;;
56752;SDS011;42627;42.646;23.642;2023-08-07T00:36:24;2.35;;;1.00;;
56752;SDS011;42627;42.646;23.642;2023-08-07T00:38:25;1.85;;;0.98;;
56752;SDS011;42627;42.646;23.642;2023-08-07T00:40:26;2.47;;;1.17;;
56752;SDS011;42627;42.646;23.642;2023-08-07T00:42:27;3.92;;;1.08;;
56752;SDS011;42627;42.646;23.642;2023-08-07T02:49:52;3.42;;;1.67;;
56752;SDS011;42627;42.646;23.642;2023-08-07T02:51:52;3.22;;;1.50;;
56752;SDS011;42627;42.646;23.642;2023-08-07T02:53:53;3.20;;;1.70;;
56752;SDS011;42627;42.646;23.642;2023-08-07T02:55:54;3.25;;;1.70;;
56752;SDS011;42627;42.646;23.642;2023-08-07T02:57:54;3.20;;;1.70;;
56752;SDS011;42627;42.646;23.642;2023-08-07T02:59:55;2.63;;;1.55;;
56752;SDS011;42627;42.646;23.642;2023-08-07T03:01:56;3.67;;;1.85;;
56752;SDS011;42627;42.646;23.642;2023-08-07T03:03:56;4.63;;;2.10;;
56752;SDS011;42627;42.646;23.642;2023-08-07T03:05:57;3.95;;;2.22;;
56752;SDS011;42627;42.646;23.642;2023-08-07T03:07:57;2.80;;;1.70;;
56752;SDS011;42627;42.646;23.642;2023-08-07T03:09:58;4.95;;;2.20;;
56752;SDS011;42627;42.646;23.642;2023-08-07T03:11:58;3.88;;;2.03;;
56752;SDS011;42627;42.646;23.642;2023-08-07T03:14:03;4.35;;;2.38;;
56752;SDS011;42627;42.646;23.642;2023-08-07T03:16:04;4.03;;;1.77;;
56752;SDS011;42627;42.646;23.642;2023-08-07T03:18:06;5.57;;;2.38;;
56752;SDS011;42627;42.646;23.642;2023-08-07T03:20:06;3.90;;;1.83;;
56752;SDS011;42627;42.646;23.642;2023-08-07T03:22:07;4.25;;;2.38;;
56752;SDS011;42627;42.646;23.642;2023-08-07T03:24:08;3.55;;;2.13;;
56752;SDS011;42627;42.646;23.642;2023-08-07T03:26:09;4.05;;;2.05;;
56752;SDS011;42627;42.646;23.642;2023-08-07T03:28:12;2.92;;;1.77;;
56752;SDS011;42627;42.646;23.642;2023-08-07T03:30:13;3.65;;;1.90;;
56752;SDS011;42627;42.646;23.642;2023-08-07T03:32:13;4.60;;;1.80;;
56752;SDS011;42627;42.646;23.642;2023-08-07T03:34:14;3.80;;;2.00;;
56752;SDS011;42627;42.646;23.642;2023-08-07T03:36:14;3.60;;;1.75;;
56752;SDS011;42627;42.646;23.642;2023-08-07T03:38:15;5.07;;;2.40;;
56752;SDS011;42627;42.646;23.642;2023-08-07T03:40:16;3.30;;;1.77;;
56752;SDS011;42627;42.646;23.642;2023-08-07T03:42:16;4.68;;;2.33;;
56752;SDS011;42627;42.646;23.642;2023-08-07T03:44:17;4.10;;;1.80;;
56752;SDS011;42627;42.646;23.642;2023-08-07T03:46:18;4.82;;;1.70;;
56752;SDS011;42627;42.646;23.642;2023-08-07T03:48:19;4.28;;;2.08;;
56752;SDS011;42627;42.646;23.642;2023-08-07T03:50:19;7.47;;;2.60;;
56752;SDS011;42627;42.646;23.642;2023-08-07T03:52:20;4.63;;;2.50;;
56752;SDS011;42627;42.646;23.642;2023-08-07T03:54:20;3.90;;;2.20;;
56752;SDS011;42627;42.646;23.642;2023-08-07T03:56:21;3.83;;;2.17;;
56752;SDS011;42627;42.646;23.642;2023-08-07T03:58:22;3.88;;;2.20;;
56752;SDS011;42627;42.646;23.642;2023-08-07T04:00:23;4.03;;;2.50;;
56752;SDS011;42627;42.646;23.642;2023-08-07T04:02:24;4.10;;;2.22;;
56752;SDS011;42627;42.646;23.642;2023-08-07T04:04:25;5.10;;;2.42;;
56752;SDS011;42627;42.646;23.642;2023-08-07T04:06:26;4.50;;;2.25;;
56752;SDS011;42627;42.646;23.642;2023-08-07T04:08:28;3.47;;;2.30;;
56752;SDS011;42627;42.646;23.642;2023-08-07T04:10:29;3.45;;;2.00;;
56752;SDS011;42627;42.646;23.642;2023-08-07T04:12:30;5.28;;;2.50;;
56752;SDS011;42627;42.646;23.642;2023-08-07T04:14:32;3.40;;;2.10;;
56752;SDS011;42627;42.646;23.642;2023-08-07T04:16:33;4.85;;;2.05;;
56752;SDS011;42627;42.646;23.642;2023-08-07T04:18:34;4.05;;;2.35;;
56752;SDS011;42627;42.646;23.642;2023-08-07T04:20:35;4.43;;;2.08;;
56752;SDS011;42627;42.646;23.642;2023-08-07T04:22:36;3.25;;;2.15;;
56752;SDS011;42627;42.646;23.642;2023-08-07T04:24:37;6.28;;;1.95;;
56752;SDS011;42627;42.646;23.642;2023-08-07T04:26:39;4.80;;;2.15;;
56752;SDS011;42627;42.646;23.642;2023-08-07T04:28:40;3.95;;;2.10;;
56752;SDS011;42627;42.646;23.642;2023-08-07T04:30:42;3.60;;;2.17;;
56752;SDS011;42627;42.646;23.642;2023-08-07T04:32:43;4.05;;;2.47;;
56752;SDS011;42627;42.646;23.642;2023-08-07T04:34:44;3.83;;;2.03;;
56752;SDS011;42627;42.646;23.642;2023-08-07T04:36:45;4.30;;;2.42;;
56752;SDS011;42627;42.646;23.642;2023-08-07T04:38:46;4.65;;;2.40;;
56752;SDS011;42627;42.646;23.642;2023-08-07T04:40:48;6.35;;;2.55;;
56752;SDS011;42627;42.646;23.642;2023-08-07T04:42:49;4.93;;;2.63;;
56752;SDS011;42627;42.646;23.642;2023-08-07T04:44:50;4.63;;;2.25;;
56752;SDS011;42627;42.646;23.642;2023-08-07T04:46:51;10.50;;;2.83;;
56752;SDS011;42627;42.646;23.642;2023-08-07T04:48:52;5.25;;;2.50;;
56752;SDS011;42627;42.646;23.642;2023-08-07T04:50:54;4.05;;;2.25;;
56752;SDS011;42627;42.646;23.642;2023-08-07T04:52:55;5.97;;;2.10;;
56752;SDS011;42627;42.646;23.642;2023-08-07T04:54:56;5.47;;;2.38;;
56752;SDS011;42627;42.646;23.642;2023-08-07T04:56:57;4.45;;;2.35;;
56752;SDS011;42627;42.646;23.642;2023-08-07T04:58:58;3.65;;;2.28;;
56752;SDS011;42627;42.646;23.642;2023-08-07T05:01:01;5.97;;;2.30;;
56752;SDS011;42627;42.646;23.642;2023-08-07T05:03:03;4.82;;;2.38;;
56752;SDS011;42627;42.646;23.642;2023-08-07T05:05:04;4.00;;;1.88;;
56752;SDS011;42627;42.646;23.642;2023-08-07T05:07:05;3.10;;;1.75;;
56752;SDS011;42627;42.646;23.642;2023-08-07T05:09:06;3.40;;;2.00;;
56752;SDS011;42627;42.646;23.642;2023-08-07T05:11:07;3.47;;;2.08;;
56752;SDS011;42627;42.646;23.642;2023-08-07T05:13:08;3.78;;;2.25;;
56752;SDS011;42627;42.646;23.642;2023-08-07T05:15:09;4.28;;;2.00;;
56752;SDS011;42627;42.646;23.642;2023-08-07T05:17:10;4.47;;;2.22;;
56752;SDS011;42627;42.646;23.642;2023-08-07T05:19:13;3.90;;;2.22;;
56752;SDS011;42627;42.646;23.642;2023-08-07T05:21:14;3.03;;;1.80;;
56752;SDS011;42627;42.646;23.642;2023-08-07T05:23:15;5.07;;;2.00;;
56752;SDS011;42627;42.646;23.642;2023-08-07T05:25:16;2.78;;;1.67;;
56752;SDS011;42627;42.646;23.642;2023-08-07T05:27:18;3.60;;;2.03;;
56752;SDS011;42627;42.646;23.642;2023-08-07T05:29:19;3.42;;;1.88;;
56752;SDS011;42627;42.646;23.642;2023-08-07T05:31:20;3.75;;;1.90;;
56752;SDS011;42627;42.646;23.642;2023-08-07T05:33:21;4.80;;;2.15;;
56752;SDS011;42627;42.646;23.642;2023-08-07T05:35:22;3.33;;;1.90;;
56752;SDS011;42627;42.646;23.642;2023-08-07T05:37:23;7.20;;;2.40;;
56752;SDS011;42627;42.646;23.642;2023-08-07T05:39:24;3.30;;;1.80;;
56752;SDS011;42627;42.646;23.642;2023-08-07T05:41:25;3.70;;;2.10;;
56752;SDS011;42627;42.646;23.642;2023-08-07T05:43:26;5.65;;;2.10;;
56752;SDS011;42627;42.646;23.642;2023-08-07T05:45:27;4.80;;;1.73;;
56752;SDS011;42627;42.646;23.642;2023-08-07T05:47:28;4.00;;;1.88;;
56752;SDS011;42627;42.646;23.642;2023-08-07T05:49:29;3.65;;;1.55;;
56752;SDS011;42627;42.646;23.642;2023-08-07T05:51:31;2.95;;;1.67;;
56752;SDS011;42627;42.646;23.642;2023-08-07T05:53:32;2.80;;;1.48;;
56752;SDS011;42627;42.646;23.642;2023-08-07T05:55:33;2.80;;;1.38;;
56752;SDS011;42627;42.646;23.642;2023-08-07T05:57:35;2.95;;;1.40;;
56752;SDS011;42627;42.646;23.642;2023-08-07T05:59:36;3.25;;;1.77;;
56752;SDS011;42627;42.646;23.642;2023-08-07T06:01:37;3.30;;;1.88;;
56752;SDS011;42627;42.646;23.642;2023-08-07T06:03:53;4.35;;;1.50;;
56752;SDS011;42627;42.646;23.642;2023-08-07T06:05:57;3.35;;;1.70;;
56752;SDS011;42627;42.646;23.642;2023-08-07T06:07:58;3.38;;;1.73;;
56752;SDS011;42627;42.646;23.642;2023-08-07T06:10:19;3.00;;;1.20;;
56752;SDS011;42627;42.646;23.642;2023-08-07T07:41:46;0.90;;;0.60;;
56752;SDS011;42627;42.646;23.642;2023-08-07T07:43:47;1.10;;;0.60;;
56752;SDS011;42627;42.646;23.642;2023-08-07T07:45:48;2.25;;;0.70;;
56752;SDS011;42627;42.646;23.642;2023-08-07T07:47:49;2.10;;;0.60;;
56752;SDS011;42627;42.646;23.642;2023-08-07T07:52:01;1.35;;;0.52;;
56752;SDS011;42627;42.646;23.642;2023-08-07T07:54:02;0.90;;;0.50;;
56752;SDS011;42627;42.646;23.642;2023-08-07T07:56:12;0.75;;;0.43;;
56752;SDS011;42627;42.646;23.642;2023-08-07T07:58:35;2.17;;;0.50;;
56752;SDS011;42627;42.646;23.642;2023-08-07T09:54:19;0.98;;;0.52;;
56752;SDS011;42627;42.646;23.642;2023-08-07T09:56:20;1.30;;;0.65;;
56752;SDS011;42627;42.646;23.642;2023-08-07T09:58:23;1.50;;;0.47;;
56752;SDS011;42627;42.646;23.642;2023-08-07T10:00:24;1.70;;;0.60;;
56752;SDS011;42627;42.646;23.642;2023-08-07T10:04:46;2.28;;;0.98;;
56752;SDS011;42627;42.646;23.642;2023-08-07T10:06:47;1.33;;;0.70;;
56752;SDS011;42627;42.646;23.642;2023-08-07T10:11:12;2.05;;;0.90;;
56752;SDS011;42627;42.646;23.642;2023-08-07T10:13:16;1.48;;;0.80;;
56752;SDS011;42627;42.646;23.642;2023-08-07T10:15:18;1.42;;;0.50;;
56752;SDS011;42627;42.646;23.642;2023-08-07T10:24:54;1.05;;;0.70;;
56752;SDS011;42627;42.646;23.642;2023-08-07T10:26:59;1.35;;;0.70;;
56752;SDS011;42627;42.646;23.642;2023-08-07T10:29:10;1.20;;;0.73;;
56752;SDS011;42627;42.646;23.642;2023-08-07T10:31:12;1.15;;;0.70;;
56752;SDS011;42627;42.646;23.642;2023-08-07T10:33:14;2.17;;;0.80;;
56752;SDS011;42627;42.646;23.642;2023-08-07T10:39:36;1.52;;;0.65;;
56752;SDS011;42627;42.646;23.642;2023-08-07T10:41:42;2.15;;;1.00;;
56752;SDS011;42627;42.646;23.642;2023-08-07T10:43:44;1.58;;;0.80;;
56752;SDS011;42627;42.646;23.642;2023-08-07T10:45:45;1.20;;;0.80;;
56752;SDS011;42627;42.646;23.642;2023-08-07T10:50:01;1.25;;;0.80;;
56752;SDS011;42627;42.646;23.642;2023-08-07T11:00:45;2.03;;;0.98;;
56752;SDS011;42627;42.646;23.642;2023-08-07T11:40:08;1.63;;;0.73;;
56752;SDS011;42627;42.646;23.642;2023-08-07T11:42:11;1.23;;;0.80;;
56752;SDS011;42627;42.646;23.642;2023-08-07T11:44:12;1.45;;;0.95;;
56752;SDS011;42627;42.646;23.642;2023-08-07T11:46:14;1.25;;;0.73;;
56752;SDS011;42627;42.646;23.642;2023-08-07T11:48:15;2.72;;;0.80;;
56752;SDS011;42627;42.646;23.642;2023-08-07T11:50:16;1.63;;;0.80;;
56752;SDS011;42627;42.646;23.642;2023-08-07T11:52:17;1.08;;;0.68;;
56752;SDS011;42627;42.646;23.642;2023-08-07T11:59:18;4.45;;;1.52;;
56752;SDS011;42627;42.646;23.642;2023-08-07T12:01:20;1.27;;;0.70;;
56752;SDS011;42627;42.646;23.642;2023-08-07T12:03:25;1.50;;;0.90;;
56752;SDS011;42627;42.646;23.642;2023-08-07T12:05:27;1.40;;;0.88;;
56752;SDS011;42627;42.646;23.642;2023-08-07T12:39:29;1.40;;;0.77;;
56752;SDS011;42627;42.646;23.642;2023-08-07T12:41:29;1.42;;;0.70;;
56752;SDS011;42627;42.646;23.642;2023-08-07T12:43:30;1.63;;;0.70;;
56752;SDS011;42627;42.646;23.642;2023-08-07T12:45:32;1.08;;;0.70;;
56752;SDS011;42627;42.646;23.642;2023-08-07T12:47:33;3.72;;;1.15;;
56752;SDS011;42627;42.646;23.642;2023-08-07T12:49:33;1.33;;;0.70;;
56752;SDS011;42627;42.646;23.642;2023-08-07T12:51:34;2.72;;;0.98;;
56752;SDS011;42627;42.646;23.642;2023-08-07T13:00:43;2.42;;;0.80;;
56752;SDS011;42627;42.646;23.642;2023-08-07T13:02:45;1.40;;;1.00;;
56752;SDS011;42627;42.646;23.642;2023-08-07T13:04:47;1.90;;;0.90;;
56752;SDS011;42627;42.646;23.642;2023-08-07T13:06:47;1.95;;;0.90;;
56752;SDS011;42627;42.646;23.642;2023-08-07T13:42:46;1.10;;;0.77;;
56752;SDS011;42627;42.646;23.642;2023-08-07T13:44:48;1.15;;;0.60;;
56752;SDS011;42627;42.646;23.642;2023-08-07T13:46:49;2.28;;;1.05;;
56752;SDS011;42627;42.646;23.642;2023-08-07T13:48:50;2.28;;;0.93;;
56752;SDS011;42627;42.646;23.642;2023-08-07T13:50:51;1.80;;;0.95;;
56752;SDS011;42627;42.646;23.642;2023-08-07T13:55:19;1.48;;;0.80;;
56752;SDS011;42627;42.646;23.642;2023-08-07T13:57:20;2.58;;;0.82;;
56752;SDS011;42627;42.646;23.642;2023-08-07T13:59:26;1.10;;;0.73;;
56752;SDS011;42627;42.646;23.642;2023-08-07T14:01:27;3.10;;;0.95;;
56752;SDS011;42627;42.646;23.642;2023-08-07T14:11:12;1.15;;;0.70;;
56752;SDS011;42627;42.646;23.642;2023-08-07T14:13:16;4.47;;;0.90;;
56752;SDS011;42627;42.646;23.642;2023-08-07T14:15:20;1.80;;;1.10;;
56752;SDS011;42627;42.646;23.642;2023-08-07T14:17:24;1.73;;;0.90;;
56752;SDS011;42627;42.646;23.642;2023-08-07T14:19:25;1.33;;;0.80;;
56752;SDS011;42627;42.646;23.642;2023-08-07T14:21:26;1.15;;;0.68;;
56752;SDS011;42627;42.646;23.642;2023-08-07T14:23:27;3.28;;;1.00;;
56752;SDS011;42627;42.646;23.642;2023-08-07T14:25:28;1.52;;;0.70;;
56752;SDS011;42627;42.646;23.642;2023-08-07T14:27:31;1.80;;;0.90;;
56752;SDS011;42627;42.646;23.642;2023-08-07T14:29:33;0.90;;;0.60;;
56752;SDS011;42627;42.646;23.642;2023-08-07T14:31:37;1.50;;;0.70;;
56752;SDS011;42627;42.646;23.642;2023-08-07T14:33:37;2.58;;;0.70;;
56752;SDS011;42627;42.646;23.642;2023-08-07T14:35:39;1.35;;;0.80;;
56752;SDS011;42627;42.646;23.642;2023-08-07T14:37:40;1.98;;;0.93;;
56752;SDS011;42627;42.646;23.642;2023-08-07T14:39:41;2.55;;;0.60;;
56752;SDS011;42627;42.646;23.642;2023-08-07T14:41:41;4.82;;;1.00;;
56752;SDS011;42627;42.646;23.642;2023-08-07T14:43:42;1.38;;;0.70;;
56752;SDS011;42627;42.646;23.642;2023-08-07T14:45:43;1.13;;;0.65;;
56752;SDS011;42627;42.646;23.642;2023-08-07T14:47:43;1.33;;;0.55;;
56752;SDS011;42627;42.646;23.642;2023-08-07T14:49:44;2.10;;;0.73;;
56752;SDS011;42627;42.646;23.642;2023-08-07T14:51:47;1.40;;;0.70;;
56752;SDS011;42627;42.646;23.642;2023-08-07T14:54:08;1.40;;;0.80;;
56752;SDS011;42627;42.646;23.642;2023-08-07T14:56:09;1.08;;;0.70;;
56752;SDS011;42627;42.646;23.642;2023-08-07T14:58:10;4.57;;;0.70;;
56752;SDS011;42627;42.646;23.642;2023-08-07T15:00:11;1.65;;;0.70;;
56752;SDS011;42627;42.646;23.642;2023-08-07T15:09:45;1.10;;;0.55;;
56752;SDS011;42627;42.646;23.642;2023-08-07T15:11:55;1.15;;;0.63;;
56752;SDS011;42627;42.646;23.642;2023-08-07T15:13:56;0.90;;;0.50;;
56752;SDS011;42627;42.646;23.642;2023-08-07T15:15:57;1.27;;;0.63;;
56752;SDS011;42627;42.646;23.642;2023-08-07T15:18:11;0.82;;;0.60;;
56752;SDS011;42627;42.646;23.642;2023-08-07T15:24:35;1.60;;;0.63;;
56752;SDS011;42627;42.646;23.642;2023-08-07T15:26:36;1.38;;;0.70;;
56752;SDS011;42627;42.646;23.642;2023-08-07T15:28:36;1.55;;;0.60;;
56752;SDS011;42627;42.646;23.642;2023-08-07T15:30:37;1.60;;;0.80;;
56752;SDS011;42627;42.646;23.642;2023-08-07T15:32:38;1.10;;;0.50;;
56752;SDS011;42627;42.646;23.642;2023-08-07T15:34:43;1.30;;;0.80;;
56752;SDS011;42627;42.646;23.642;2023-08-07T15:41:05;0.93;;;0.60;;
56752;SDS011;42627;42.646;23.642;2023-08-07T15:43:07;1.02;;;0.68;;
56752;SDS011;42627;42.646;23.642;2023-08-07T15:45:08;1.13;;;0.75;;
56752;SDS011;42627;42.646;23.642;2023-08-07T15:47:09;1.13;;;0.80;;
56752;SDS011;42627;42.646;23.642;2023-08-07T15:49:10;1.33;;;0.80;;
56752;SDS011;42627;42.646;23.642;2023-08-07T15:58:03;2.35;;;0.85;;
56752;SDS011;42627;42.646;23.642;2023-08-07T16:00:05;1.23;;;0.63;;
56752;SDS011;42627;42.646;23.642;2023-08-07T16:02:07;2.30;;;1.05;;
56752;SDS011;42627;42.646;23.642;2023-08-07T16:04:23;1.45;;;0.90;;
56752;SDS011;42627;42.646;23.642;2023-08-07T16:06:25;1.35;;;0.82;;
56752;SDS011;42627;42.646;23.642;2023-08-07T16:08:26;1.70;;;0.85;;
56752;SDS011;42627;42.646;23.642;2023-08-07T16:10:26;3.42;;;0.73;;
56752;SDS011;42627;42.646;23.642;2023-08-07T16:12:27;1.40;;;0.90;;
56752;SDS011;42627;42.646;23.642;2023-08-07T16:14:28;2.30;;;0.85;;
56752;SDS011;42627;42.646;23.642;2023-08-07T16:16:29;1.75;;;0.90;;
56752;SDS011;42627;42.646;23.642;2023-08-07T16:18:29;1.80;;;0.90;;
56752;SDS011;42627;42.646;23.642;2023-08-07T16:20:30;1.23;;;0.80;;
56752;SDS011;42627;42.646;23.642;2023-08-07T16:22:31;2.95;;;1.27;;
56752;SDS011;42627;42.646;23.642;2023-08-07T16:24:32;1.15;;;0.63;;
56752;SDS011;42627;42.646;23.642;2023-08-07T17:18:20;3.80;;;1.60;;
56752;SDS011;42627;42.646;23.642;2023-08-07T17:20:20;2.72;;;1.08;;
56752;SDS011;42627;42.646;23.642;2023-08-07T17:22:21;5.00;;;1.10;;
56752;SDS011;42627;42.646;23.642;2023-08-07T17:24:22;2.78;;;1.30;;
56752;SDS011;42627;42.646;23.642;2023-08-07T17:26:22;1.95;;;0.75;;
56752;SDS011;42627;42.646;23.642;2023-08-07T17:28:23;4.93;;;1.27;;
56752;SDS011;42627;42.646;23.642;2023-08-07T17:30:24;2.75;;;1.00;;
56752;SDS011;42627;42.646;23.642;2023-08-07T17:32:36;5.00;;;1.23;;
56752;SDS011;42627;42.646;23.642;2023-08-07T17:34:39;1.98;;;0.90;;
56752;SDS011;42627;42.646;23.642;2023-08-07T17:36:40;2.00;;;1.05;;
56752;SDS011;42627;42.646;23.642;2023-08-07T17:38:41;2.13;;;0.95;;
56752;SDS011;42627;42.646;23.642;2023-08-07T17:40:42;1.80;;;0.90;;
56752;SDS011;42627;42.646;23.642;2023-08-07T17:45:20;3.92;;;1.17;;
56752;SDS011;42627;42.646;23.642;2023-08-07T18:26:49;3.13;;;1.05;;
56752;SDS011;42627;42.646;23.642;2023-08-07T18:28:49;2.33;;;0.98;;
56752;SDS011;42627;42.646;23.642;2023-08-07T18:30:50;2.33;;;0.73;;
56752;SDS011;42627;42.646;23.642;2023-08-07T18:45:49;2.83;;;1.08;;
56752;SDS011;42627;42.646;23.642;2023-08-07T20:51:23;5.47;;;1.40;;
56752;SDS011;42627;42.646;23.642;2023-08-07T20:53:24;2.20;;;1.38;;
56752;SDS011;42627;42.646;23.642;2023-08-07T20:55:25;2.08;;;1.15;;
56752;SDS011;42627;42.646;23.642;2023-08-07T20:57:27;3.38;;;1.30;;
56752;SDS011;42627;42.646;23.642;2023-08-07T20:59:28;1.90;;;1.05;;
56752;SDS011;42627;42.646;23.642;2023-08-07T21:01:29;4.82;;;1.40;;
56752;SDS011;42627;42.646;23.642;2023-08-07T21:03:30;4.68;;;1.48;;
56752;SDS011;42627;42.646;23.642;2023-08-07T21:12:48;2.38;;;1.15;;
56752;SDS011;42627;42.646;23.642;2023-08-07T21:14:49;5.15;;;1.60;;
56752;SDS011;42627;42.646;23.642;2023-08-07T21:16:50;4.38;;;1.45;;
56752;SDS011;42627;42.646;23.642;2023-08-07T21:18:51;2.55;;;1.23;;
56752;SDS011;42627;42.646;23.642;2023-08-07T21:21:01;4.70;;;1.40;;
56752;SDS011;42627;42.646;23.642;2023-08-07T21:23:02;3.13;;;1.60;;
56752;SDS011;42627;42.646;23.642;2023-08-07T21:25:04;2.83;;;1.88;;
56752;SDS011;42627;42.646;23.642;2023-08-07T21:27:05;2.30;;;1.35;;
56752;SDS011;42627;42.646;23.642;2023-08-07T21:29:06;5.38;;;1.50;;
56752;SDS011;42627;42.646;23.642;2023-08-07T21:31:07;4.03;;;1.60;;
56752;SDS011;42627;42.646;23.642;2023-08-07T21:33:08;2.72;;;1.50;;
56752;SDS011;42627;42.646;23.642;2023-08-07T22:23:09;3.50;;;1.63;;
56752;SDS011;42627;42.646;23.642;2023-08-07T22:25:10;4.63;;;1.58;;
56752;SDS011;42627;42.646;23.642;2023-08-07T22:27:12;4.38;;;1.85;;
56752;SDS011;42627;42.646;23.642;2023-08-07T22:29:13;3.35;;;1.90;;
56752;SDS011;42627;42.646;23.642;2023-08-07T22:31:14;3.78;;;1.60;;
56752;SDS011;42627;42.646;23.642;2023-08-07T22:33:15;3.28;;;1.77;;
56752;SDS011;42627;42.646;23.642;2023-08-07T22:35:17;5.30;;;1.90;;
56752;SDS011;42627;42.646;23.642;2023-08-07T22:37:18;2.75;;;1.63;;
56752;SDS011;42627;42.646;23.642;2023-08-07T22:39:19;1.63;;;0.98;;
56752;SDS011;42627;42.646;23.642;2023-08-07T22:41:20;1.25;;;0.70;;
56752;SDS011;42627;42.646;23.642;2023-08-07T22:43:21;1.73;;;0.95;;
56752;SDS011;42627;42.646;23.642;2023-08-07T22:45:22;1.52;;;0.70;;
56752;SDS011;42627;42.646;23.642;2023-08-07T22:47:23;2.15;;;0.90;;
56752;SDS011;42627;42.646;23.642;2023-08-07T22:49:24;0.95;;;0.70;;
56752;SDS011;42627;42.646;23.642;2023-08-07T22:51:25;1.70;;;0.80;;
56752;SDS011;42627;42.646;23.642;2023-08-07T22:53:26;1.60;;;0.98;;
56752;SDS011;42627;42.646;23.642;2023-08-07T22:55:27;1.88;;;0.88;;
56752;SDS011;42627;42.646;23.642;2023-08-07T22:57:28;2.70;;;0.88;;
56752;SDS011;42627;42.646;23.642;2023-08-07T22:59:29;2.83;;;1.05;;
56752;SDS011;42627;42.646;23.642;2023-08-07T23:01:30;1.52;;;0.70;;
56752;SDS011;42627;42.646;23.642;2023-08-07T23:03:31;2.03;;;0.85;;
56752;SDS011;42627;42.646;23.642;2023-08-07T23:05:32;2.10;;;1.00;;
56752;SDS011;42627;42.646;23.642;2023-08-07T23:07:33;1.40;;;0.95;;
56752;SDS011;42627;42.646;23.642;2023-08-07T23:09:34;3.60;;;0.90;;
56752;SDS011;42627;42.646;23.642;2023-08-07T23:11:35;1.88;;;1.00;;
56752;SDS011;42627;42.646;23.642;2023-08-07T23:13:36;1.55;;;0.82;;
56752;SDS011;42627;42.646;23.642;2023-08-07T23:15:37;2.42;;;0.70;;
56752;SDS011;42627;42.646;23.642;2023-08-07T23:17:38;2.75;;;0.90;;
56752;SDS011;42627;42.646;23.642;2023-08-07T23:19:39;1.58;;;0.82;;
56752;SDS011;42627;42.646;23.642;2023-08-07T23:21:40;2.88;;;1.00;;
56752;SDS011;42627;42.646;23.642;2023-08-07T23:23:41;2.80;;;1.02;;
56752;SDS011;42627;42.646;23.642;2023-08-07T23:25:42;2.05;;;0.75;;
56752;SDS011;42627;42.646;23.642;2023-08-07T23:27:43;3.55;;;0.95;;
56752;SDS011;42627;42.646;23.642;2023-08-07T23:29:44;1.35;;;0.68;;
56752;SDS011;42627;42.646;23.642;2023-08-07T23:31:46;3.05;;;0.95;;
56752;SDS011;42627;42.646;23.642;2023-08-07T23:33:47;1.13;;;0.80;;
56752;SDS011;42627;42.646;23.642;2023-08-07T23:35:48;2.55;;;0.90;;
56752;SDS011;42627;42.646;23.642;2023-08-07T23:37:49;1.45;;;0.85;;
56752;SDS011;42627;42.646;23.642;2023-08-07T23:39:50;2.13;;;0.95;;
56752;SDS011;42627;42.646;23.642;2023-08-07T23:41:51;1.55;;;0.73;;
56752;SDS011;42627;42.646;23.642;2023-08-07T23:43:52;2.03;;;0.80;;
56752;SDS011;42627;42.646;23.642;2023-08-07T23:45:53;2.72;;;1.20;;
56752;SDS011;42627;42.646;23.642;2023-08-07T23:47:54;2.75;;;0.68;;
56752;SDS011;42627;42.646;23.642;2023-08-07T23:49:55;2.13;;;0.90;;
56752;SDS011;42627;42.646;23.642;2023-08-07T23:51:56;1.23;;;0.60;;
56752;SDS011;42627;42.646;23.642;2023-08-07T23:53:57;1.25;;;0.70;;
56752;SDS011;42627;42.646;23.642;2023-08-07T23:55:58;0.95;;;0.85;;
56752;SDS011;42627;42.646;23.642;2023-08-07T23:57:59;1.58;;;0.73;;
